createdAt,value
2019-02-21T06:40:48.403Z,1005.41
2019-02-21T06:41:58.770Z,1005.44
2019-02-21T06:42:49.375Z,1005.47
2019-02-21T06:43:48.367Z,1005.45
2019-02-21T06:44:48.354Z,1005.48
2019-02-21T06:45:48.352Z,1005.46
2019-02-21T06:46:48.368Z,1005.47
2019-02-21T06:47:48.330Z,1005.56
2019-02-21T06:48:55.298Z,1005.56
2019-02-21T06:49:48.312Z,1005.65
2019-02-21T06:50:48.276Z,1005.39
2019-02-21T06:51:57.383Z,1005.42
2019-02-21T06:52:48.373Z,1005.52
2019-02-21T06:53:48.252Z,1005.35
2019-02-21T06:54:48.243Z,1005.32
2019-02-21T06:55:48.304Z,1005.35
2019-02-21T06:56:48.218Z,1005.35
2019-02-21T06:57:48.246Z,1005.37
2019-02-21T06:58:48.207Z,1005.42
2019-02-21T06:59:48.177Z,1005.42
2019-02-21T07:00:48.173Z,1005.42
2019-02-21T07:01:48.156Z,1005.39
2019-02-21T07:02:48.150Z,1005.42
2019-02-21T07:03:48.178Z,1005.37
2019-02-21T07:04:48.180Z,1005.37
2019-02-21T07:05:48.120Z,1005.46
2019-02-21T07:06:48.146Z,1005.43
2019-02-21T07:07:48.092Z,1005.49
2019-02-21T07:08:48.098Z,1005.49
2019-02-21T07:09:48.105Z,1005.56
2019-02-21T07:10:48.062Z,1005.60
2019-02-21T07:11:48.089Z,1005.49
2019-02-21T07:12:48.053Z,1005.56
2019-02-21T07:13:48.033Z,1005.66
2019-02-21T07:14:48.873Z,1005.52
2019-02-21T07:15:48.008Z,1005.52
2019-02-21T07:16:48.015Z,1005.52
2019-02-21T07:17:49.594Z,1005.54
2019-02-21T07:18:47.979Z,1005.62
2019-02-21T07:19:47.964Z,1005.61
2019-02-21T07:20:47.962Z,1005.60
2019-02-21T07:21:47.958Z,1005.61
2019-02-21T07:23:00.985Z,1005.63
2019-02-21T07:23:47.931Z,1005.77
2019-02-21T07:24:47.913Z,1005.70
2019-02-21T07:25:50.448Z,1005.75
2019-02-21T07:26:47.895Z,1005.90
2019-02-21T07:27:47.887Z,1005.86
2019-02-21T07:28:47.925Z,1005.84
2019-02-21T07:29:47.865Z,1005.92
2019-02-21T07:30:47.854Z,1005.95
2019-02-21T07:31:49.382Z,1005.88
2019-02-21T07:32:47.832Z,1005.94
2019-02-21T07:33:48.460Z,1006.00
2019-02-21T07:34:47.847Z,1006.05
2019-02-21T07:35:47.805Z,1006.05
2019-02-21T07:36:50.003Z,1006.04
2019-02-21T07:37:47.785Z,1005.92
2019-02-21T07:38:47.810Z,1006.05
2019-02-21T07:39:47.790Z,1006.09
2019-02-21T07:40:47.787Z,1006.06
2019-02-21T07:41:49.971Z,1006.12
2019-02-21T07:42:48.151Z,1006.19
2019-02-21T07:43:47.720Z,1006.17
2019-02-21T07:44:47.760Z,1006.20
2019-02-21T07:45:47.698Z,1006.24
2019-02-21T07:46:47.856Z,1006.23
2019-02-21T07:47:47.676Z,1006.16
2019-02-21T07:48:47.667Z,1006.32
2019-02-21T07:49:47.734Z,1006.25
2019-02-21T07:50:47.647Z,1006.26
2019-02-21T07:51:47.635Z,1006.32
2019-02-21T07:52:47.652Z,1006.31
2019-02-21T07:54:00.021Z,1006.32
2019-02-21T07:54:49.469Z,1006.36
2019-02-21T07:55:48.591Z,1006.34
2019-02-21T07:56:47.585Z,1006.35
2019-02-21T07:57:47.598Z,1006.34
2019-02-21T07:58:47.628Z,1006.40
2019-02-21T07:59:47.549Z,1006.36
2019-02-21T08:00:47.549Z,1006.42
2019-02-21T08:01:47.538Z,1006.41
2019-02-21T08:02:47.524Z,1006.48
2019-02-21T08:03:48.612Z,1006.44
2019-02-21T08:04:47.578Z,1006.50
2019-02-21T08:05:47.489Z,1006.49
2019-02-21T08:06:47.479Z,1006.53
2019-02-21T08:07:49.704Z,1006.54
2019-02-21T08:08:47.461Z,1006.50
2019-02-21T08:09:47.461Z,1006.55
2019-02-21T08:10:47.447Z,1006.52
2019-02-21T08:11:47.438Z,1006.55
2019-02-21T08:12:47.412Z,1006.52
2019-02-21T08:13:47.402Z,1006.55
2019-02-21T08:14:47.403Z,1006.56
2019-02-21T08:15:47.428Z,1006.56
2019-02-21T08:16:47.385Z,1006.63
2019-02-21T08:17:47.367Z,1006.63
2019-02-21T08:18:47.365Z,1006.72
2019-02-21T08:19:47.345Z,1006.73
2019-02-21T08:20:47.336Z,1006.71
2019-02-21T08:21:47.585Z,1006.82
2019-02-21T08:22:47.319Z,1006.78
2019-02-21T08:23:50.466Z,1006.68
2019-02-21T08:24:59.236Z,1006.78
2019-02-21T08:25:47.284Z,1006.81
2019-02-21T08:26:47.281Z,1006.89
2019-02-21T08:27:47.298Z,1006.79
2019-02-21T08:28:47.246Z,1006.85
2019-02-21T08:29:47.253Z,1006.87
2019-02-21T08:30:47.232Z,1006.90
2019-02-21T08:31:47.213Z,1006.95
2019-02-21T08:32:47.207Z,1007.03
2019-02-21T08:33:58.017Z,1007.01
2019-02-21T08:34:48.438Z,1007.00
2019-02-21T08:35:47.176Z,1007.04
2019-02-21T08:36:47.192Z,1007.04
2019-02-21T08:37:47.151Z,1007.07
2019-02-21T08:38:47.151Z,1007.06
2019-02-21T08:39:47.177Z,1007.16
2019-02-21T08:40:47.132Z,1007.08
2019-02-21T08:41:47.113Z,1007.19
2019-02-21T08:42:47.107Z,1007.35
2019-02-21T08:43:47.093Z,1007.20
2019-02-21T08:44:47.087Z,1007.23
2019-02-21T08:45:47.089Z,1007.18
2019-02-21T08:46:47.073Z,1007.33
2019-02-21T08:47:47.050Z,1007.22
2019-02-21T08:48:47.882Z,1007.24
2019-02-21T08:49:47.030Z,1007.23
2019-02-21T08:50:47.021Z,1007.31
2019-02-21T08:51:47.034Z,1007.24
2019-02-21T08:52:46.997Z,1007.25
2019-02-21T08:53:46.988Z,1007.26
2019-02-21T08:54:46.980Z,1007.31
2019-02-21T08:55:58.996Z,1007.34
2019-02-21T08:56:46.953Z,1007.27
2019-02-21T08:57:46.946Z,1007.34
2019-02-21T08:58:46.940Z,1007.38
2019-02-21T08:59:46.939Z,1007.34
2019-02-21T09:00:47.233Z,1007.44
2019-02-21T09:01:46.970Z,1007.56
2019-02-21T09:02:46.892Z,1007.40
2019-02-21T09:03:46.904Z,1007.43
2019-02-21T09:04:46.874Z,1007.42
2019-02-21T09:05:46.868Z,1007.51
2019-02-21T09:06:46.863Z,1007.49
2019-02-21T09:07:46.880Z,1007.46
2019-02-21T09:08:46.829Z,1007.50
2019-02-21T09:09:46.820Z,1007.54
2019-02-21T09:10:46.806Z,1007.60
2019-02-21T09:11:46.806Z,1007.61
2019-02-21T09:12:48.471Z,1007.61
2019-02-21T09:13:46.957Z,1007.57
2019-02-21T09:14:46.827Z,1007.62
2019-02-21T09:15:46.782Z,1007.67
2019-02-21T09:16:46.751Z,1007.65
2019-02-21T09:17:46.755Z,1007.70
2019-02-21T09:18:46.743Z,1007.63
2019-02-21T09:19:46.750Z,1007.62
2019-02-21T09:20:47.841Z,1007.79
2019-02-21T09:21:46.691Z,1007.78
2019-02-21T09:22:46.682Z,1007.66
2019-02-21T09:23:46.690Z,1007.73
2019-02-21T09:24:46.661Z,1007.72
2019-02-21T09:25:49.505Z,1007.83
2019-02-21T09:27:00.321Z,1007.78
2019-02-21T09:27:46.632Z,1007.81
2019-02-21T09:28:46.624Z,1007.90
2019-02-21T09:29:46.616Z,1007.82
2019-02-21T09:30:46.604Z,1007.90
2019-02-21T09:31:46.633Z,1007.87
2019-02-21T09:32:46.585Z,1007.81
2019-02-21T09:33:46.572Z,1007.90
2019-02-21T09:34:46.557Z,1007.84
2019-02-21T09:35:46.548Z,1007.83
2019-02-21T09:36:46.542Z,1007.85
2019-02-21T09:37:46.546Z,1007.87
2019-02-21T09:38:46.551Z,1007.91
2019-02-21T09:39:46.532Z,1007.98
2019-02-21T09:40:46.500Z,1007.94
2019-02-21T09:41:46.493Z,1007.92
2019-02-21T09:42:46.509Z,1007.95
2019-02-21T09:43:46.466Z,1007.96
2019-02-21T09:44:46.452Z,1007.92
2019-02-21T09:45:46.442Z,1008.06
2019-02-21T09:46:46.429Z,1007.96
2019-02-21T09:47:46.419Z,1007.96
2019-02-21T09:48:46.450Z,1008.07
2019-02-21T09:49:46.405Z,1008.04
2019-02-21T09:50:46.395Z,1008.01
2019-02-21T09:51:46.385Z,1008.05
2019-02-21T09:52:46.370Z,1008.07
2019-02-21T09:53:46.391Z,1008.09
2019-02-21T09:54:47.490Z,1008.07
2019-02-21T09:55:46.333Z,1008.03
2019-02-21T09:56:52.828Z,1008.09
2019-02-21T09:59:00.929Z,1008.10
2019-02-21T10:00:00.931Z,1008.08
2019-02-21T10:01:00.892Z,1008.18
2019-02-21T10:02:00.872Z,1008.23
2019-02-21T10:03:00.871Z,1008.22
2019-02-21T10:04:00.864Z,1008.19
2019-02-21T10:05:05.110Z,1008.16
2019-02-21T10:06:01.009Z,1008.19
2019-02-21T10:07:00.852Z,1008.31
2019-02-21T10:08:00.813Z,1008.22
2019-02-21T10:09:08.098Z,1008.24
2019-02-21T10:10:01.167Z,1008.28
2019-02-21T10:11:01.010Z,1008.34
2019-02-21T10:13:16.557Z,1008.43
2019-02-21T10:14:16.499Z,1008.37
2019-02-21T10:15:23.766Z,1008.40
2019-02-21T10:16:16.467Z,1008.39
2019-02-21T10:17:16.451Z,1008.35
2019-02-21T10:18:16.453Z,1008.36
2019-02-21T10:19:16.482Z,1008.40
2019-02-21T10:20:16.413Z,1008.37
2019-02-21T10:21:16.417Z,1008.39
2019-02-21T10:23:32.745Z,1008.41
2019-02-21T10:26:15.236Z,1008.44
2019-02-21T10:27:24.471Z,1008.48
2019-02-21T10:28:15.207Z,1008.49
2019-02-21T10:29:15.188Z,1008.50
2019-02-21T10:31:31.854Z,1008.51
2019-02-21T10:32:31.635Z,1008.55
2019-02-21T10:33:31.607Z,1008.54
2019-02-21T10:34:31.602Z,1008.59
2019-02-21T10:35:31.595Z,1008.58
2019-02-21T10:36:31.587Z,1008.62
2019-02-21T10:37:31.570Z,1008.59
2019-02-21T10:38:31.566Z,1008.58
2019-02-21T10:39:31.538Z,1008.57
2019-02-21T10:40:33.367Z,1008.65
2019-02-21T10:41:31.525Z,1008.60
2019-02-21T10:42:31.555Z,1008.75
2019-02-21T10:43:31.529Z,1008.65
2019-02-21T10:44:31.495Z,1008.62
2019-02-21T10:45:31.502Z,1008.67
2019-02-21T10:46:31.483Z,1008.67
2019-02-21T10:47:31.474Z,1008.74
2019-02-21T10:48:31.641Z,1008.83
2019-02-21T10:49:31.433Z,1008.69
2019-02-21T10:50:31.431Z,1008.74
2019-02-21T10:51:31.424Z,1008.70
2019-02-21T10:52:31.408Z,1008.74
2019-02-21T10:53:31.505Z,1008.77
2019-02-21T10:54:31.473Z,1008.82
2019-02-21T10:55:31.421Z,1008.83
2019-02-21T10:56:31.367Z,1008.82
2019-02-21T10:57:32.078Z,1008.84
2019-02-21T10:58:31.346Z,1008.80
2019-02-21T10:59:32.096Z,1008.91
2019-02-21T11:00:31.377Z,1008.95
2019-02-21T11:02:52.791Z,1008.93
2019-02-21T11:03:52.478Z,1008.89
2019-02-21T11:04:55.094Z,1008.97
2019-02-21T11:05:52.469Z,1008.90
2019-02-21T11:06:52.452Z,1008.99
2019-02-21T11:07:52.476Z,1008.97
2019-02-21T11:08:52.459Z,1009.02
2019-02-21T11:09:52.411Z,1009.02
2019-02-21T11:10:52.427Z,1008.98
2019-02-21T11:11:52.441Z,1009.02
2019-02-21T11:12:52.419Z,1009.06
2019-02-21T11:13:52.386Z,1009.07
2019-02-21T11:15:00.631Z,1009.22
2019-02-21T11:15:52.362Z,1009.15
2019-02-21T11:16:52.336Z,1009.15
2019-02-21T11:17:52.402Z,1009.09
2019-02-21T11:20:26.680Z,1009.19
2019-02-21T11:21:26.471Z,1009.19
2019-02-21T11:22:27.456Z,1009.16
2019-02-21T11:23:26.437Z,1009.16
2019-02-21T11:24:26.443Z,1009.20
2019-02-21T11:25:26.424Z,1009.28
2019-02-21T11:26:26.584Z,1009.27
2019-02-21T11:27:26.437Z,1009.24
2019-02-21T11:28:26.384Z,1009.12
2019-02-21T11:29:26.377Z,1009.23
2019-02-21T11:30:26.366Z,1009.21
2019-02-21T11:31:27.945Z,1009.22
2019-02-21T11:32:33.549Z,1009.26
2019-02-21T11:33:26.371Z,1009.31
2019-02-21T11:34:26.337Z,1009.18
2019-02-21T11:35:26.335Z,1009.35
2019-02-21T11:37:50.049Z,1009.36
2019-02-21T11:38:49.943Z,1009.28
2019-02-21T11:39:49.924Z,1009.37
2019-02-21T11:40:49.956Z,1009.33
2019-02-21T11:43:02.460Z,1009.45
2019-02-21T11:43:59.975Z,1009.50
2019-02-21T11:45:08.476Z,1009.49
2019-02-21T11:46:00.033Z,1009.51
2019-02-21T11:47:00.122Z,1009.49
2019-02-21T11:47:59.947Z,1009.46
2019-02-21T11:49:00.197Z,1009.56
2019-02-21T11:49:59.990Z,1009.57
2019-02-21T11:50:59.917Z,1009.53
2019-02-21T11:52:09.789Z,1009.62
2019-02-21T11:53:00.987Z,1009.56
2019-02-21T11:53:59.897Z,1009.59
2019-02-21T11:54:59.939Z,1009.59
2019-02-21T11:56:00.233Z,1009.63
2019-02-21T11:57:00.924Z,1009.65
2019-02-21T11:57:59.870Z,1009.62
2019-02-21T11:58:59.857Z,1009.66
2019-02-21T11:59:59.838Z,1009.71
2019-02-21T12:00:59.836Z,1009.65
2019-02-21T12:01:59.831Z,1009.70
2019-02-21T12:02:59.847Z,1009.68
2019-02-21T12:03:59.767Z,1009.73
2019-02-21T12:04:59.837Z,1009.68
2019-02-21T12:06:00.251Z,1009.70
2019-02-21T12:06:59.746Z,1009.73
2019-02-21T12:07:59.744Z,1009.79
2019-02-21T12:08:59.725Z,1009.76
2019-02-21T12:09:59.783Z,1009.88
2019-02-21T12:10:59.805Z,1009.87
2019-02-21T12:11:59.732Z,1009.90
2019-02-21T12:12:59.715Z,1009.94
2019-02-21T12:13:59.667Z,1009.95
2019-02-21T12:15:07.458Z,1009.86
2019-02-21T12:15:59.633Z,1009.94
2019-02-21T12:16:59.642Z,1009.98
2019-02-21T12:17:59.614Z,1010.00
2019-02-21T12:18:59.614Z,1009.96
2019-02-21T12:19:59.603Z,1009.99
2019-02-21T12:20:59.620Z,1010.00
2019-02-21T12:21:59.596Z,1010.04
2019-02-21T12:22:59.563Z,1010.07
2019-02-21T12:23:59.547Z,1010.01
2019-02-21T12:24:59.537Z,1010.05
2019-02-21T12:25:59.534Z,1010.13
2019-02-21T12:26:59.572Z,1010.10
2019-02-21T12:27:59.510Z,1010.12
2019-02-21T12:28:59.498Z,1010.09
2019-02-21T12:29:59.493Z,1010.15
2019-02-21T12:30:59.479Z,1010.10
2019-02-21T12:31:59.468Z,1010.14
2019-02-21T12:32:59.514Z,1010.16
2019-02-21T12:33:59.449Z,1010.12
2019-02-21T12:34:59.452Z,1010.14
2019-02-21T12:35:59.715Z,1009.99
2019-02-21T12:36:59.452Z,1010.08
2019-02-21T12:37:59.402Z,1010.05
2019-02-21T12:38:59.431Z,1010.14
2019-02-21T12:39:59.391Z,1010.10
2019-02-21T12:40:59.368Z,1010.25
2019-02-21T12:41:59.361Z,1010.17
2019-02-21T12:42:59.417Z,1010.20
2019-02-21T12:43:59.334Z,1010.17
2019-02-21T12:44:59.368Z,1010.30
2019-02-21T12:46:11.189Z,1010.20
2019-02-21T12:46:59.314Z,1010.26
2019-02-21T12:47:59.326Z,1010.33
2019-02-21T12:48:59.442Z,1010.24
2019-02-21T12:49:59.329Z,1010.36
2019-02-21T12:50:59.408Z,1010.26
2019-02-21T12:51:59.269Z,1010.40
2019-02-21T12:52:59.247Z,1010.35
2019-02-21T12:53:59.233Z,1010.24
2019-02-21T12:54:59.233Z,1010.35
2019-02-21T12:55:59.232Z,1010.33
2019-02-21T12:56:59.312Z,1010.40
2019-02-21T12:57:59.199Z,1010.47
2019-02-21T12:58:59.188Z,1010.52
2019-02-21T12:59:59.182Z,1010.50
2019-02-21T13:00:59.166Z,1010.41
2019-02-21T13:01:59.154Z,1010.40
2019-02-21T13:02:59.176Z,1010.48
2019-02-21T13:03:59.127Z,1010.56
2019-02-21T13:04:59.122Z,1010.48
2019-02-21T13:05:59.106Z,1010.41
2019-02-21T13:06:59.132Z,1010.50
2019-02-21T13:07:59.092Z,1010.49
2019-02-21T13:08:59.122Z,1010.52
2019-02-21T13:09:59.069Z,1010.59
2019-02-21T13:10:59.112Z,1010.57
2019-02-21T13:11:59.047Z,1010.59
2019-02-21T13:12:59.059Z,1010.67
2019-02-21T13:13:59.027Z,1010.59
2019-02-21T13:14:59.041Z,1010.66
2019-02-21T13:15:59.006Z,1010.63
2019-02-21T13:17:11.917Z,1010.72
2019-02-21T13:17:58.979Z,1010.74
2019-02-21T13:18:58.983Z,1010.74
2019-02-21T13:19:58.999Z,1010.72
2019-02-21T13:20:59.042Z,1010.75
2019-02-21T13:21:58.939Z,1010.74
2019-02-21T13:22:58.930Z,1010.82
2019-02-21T13:23:58.925Z,1010.72
2019-02-21T13:24:58.932Z,1010.76
2019-02-21T13:25:58.908Z,1010.82
2019-02-21T13:26:58.894Z,1010.72
2019-02-21T13:27:58.894Z,1010.82
2019-02-21T13:28:58.888Z,1010.89
2019-02-21T13:29:58.858Z,1010.80
2019-02-21T13:30:58.856Z,1010.93
2019-02-21T13:31:58.891Z,1010.86
2019-02-21T13:32:58.839Z,1010.94
2019-02-21T13:33:58.809Z,1010.95
2019-02-21T13:34:58.806Z,1010.91
2019-02-21T13:35:58.794Z,1010.98
2019-02-21T13:36:58.846Z,1010.93
2019-02-21T13:37:58.814Z,1010.99
2019-02-21T13:38:58.792Z,1011.06
2019-02-21T13:40:00.597Z,1010.93
2019-02-21T13:40:58.751Z,1011.01
2019-02-21T13:41:58.727Z,1010.99
2019-02-21T13:42:58.725Z,1011.14
2019-02-21T13:43:58.861Z,1011.11
2019-02-21T13:44:58.724Z,1011.06
2019-02-21T13:45:59.454Z,1011.11
2019-02-21T13:46:58.691Z,1011.12
2019-02-21T13:48:08.893Z,1011.11
2019-02-21T13:48:58.676Z,1011.13
2019-02-21T13:49:58.663Z,1011.14
2019-02-21T13:50:58.629Z,1011.16
2019-02-21T13:51:58.624Z,1011.23
2019-02-21T13:52:58.614Z,1011.24
2019-02-21T13:53:58.598Z,1011.28
2019-02-21T13:54:58.612Z,1011.29
2019-02-21T13:55:58.617Z,1011.28
2019-02-21T13:56:58.572Z,1011.25
2019-02-21T13:57:58.555Z,1011.38
2019-02-21T13:58:58.576Z,1011.26
2019-02-21T13:59:58.541Z,1011.36
2019-02-21T14:00:58.554Z,1011.48
2019-02-21T14:01:58.687Z,1011.37
2019-02-21T14:02:58.514Z,1011.43
2019-02-21T14:03:58.498Z,1011.40
2019-02-21T14:04:58.940Z,1011.47
2019-02-21T14:06:03.659Z,1011.47
2019-02-21T14:06:59.509Z,1011.42
2019-02-21T14:07:58.457Z,1011.46
2019-02-21T14:08:58.449Z,1011.49
2019-02-21T14:09:58.433Z,1011.50
2019-02-21T14:10:58.425Z,1011.45
2019-02-21T14:11:58.415Z,1011.52
2019-02-21T14:12:58.440Z,1011.51
2019-02-21T14:13:58.391Z,1011.54
2019-02-21T14:14:58.385Z,1011.59
2019-02-21T14:15:58.378Z,1011.58
2019-02-21T14:16:58.356Z,1011.57
2019-02-21T14:17:58.351Z,1011.58
2019-02-21T14:19:10.545Z,1011.66
2019-02-21T14:19:58.323Z,1011.71
2019-02-21T14:20:58.319Z,1011.68
2019-02-21T14:21:58.327Z,1011.62
2019-02-21T14:22:58.294Z,1011.67
2019-02-21T14:23:58.345Z,1011.62
2019-02-21T14:24:58.309Z,1011.67
2019-02-21T14:25:58.267Z,1011.68
2019-02-21T14:26:58.263Z,1011.76
2019-02-21T14:27:58.264Z,1011.70
2019-02-21T14:28:58.231Z,1011.73
2019-02-21T14:29:58.221Z,1011.76
2019-02-21T14:30:58.383Z,1011.71
2019-02-21T14:31:58.197Z,1011.71
2019-02-21T14:32:58.200Z,1011.75
2019-02-21T14:33:59.067Z,1011.75
2019-02-21T14:34:58.184Z,1011.73
2019-02-21T14:35:58.155Z,1011.66
2019-02-21T14:37:01.020Z,1011.74
2019-02-21T14:37:58.137Z,1011.83
2019-02-21T14:38:58.148Z,1011.85
2019-02-21T14:39:58.123Z,1011.88
2019-02-21T14:40:58.110Z,1011.92
2019-02-21T14:41:58.095Z,1011.95
2019-02-21T14:42:58.135Z,1011.87
2019-02-21T14:44:00.389Z,1011.87
2019-02-21T14:44:58.077Z,1011.94
2019-02-21T14:45:58.062Z,1011.89
2019-02-21T14:46:58.055Z,1011.98
2019-02-21T14:47:58.212Z,1011.95
2019-02-21T14:48:58.024Z,1011.93
2019-02-21T14:50:09.657Z,1012.00
2019-02-21T14:50:58.013Z,1012.07
2019-02-21T14:51:57.992Z,1012.07
2019-02-21T14:52:58.002Z,1012.05
2019-02-21T14:53:58.021Z,1012.12
2019-02-21T14:54:57.961Z,1012.08
2019-02-21T14:55:57.955Z,1012.16
2019-02-21T14:56:57.945Z,1012.15
2019-02-21T14:57:57.929Z,1012.16
2019-02-21T14:58:57.941Z,1012.11
2019-02-21T14:59:57.915Z,1012.17
2019-02-21T15:00:57.906Z,1012.08
2019-02-21T15:01:57.890Z,1012.22
2019-02-21T15:02:58.122Z,1012.29
2019-02-21T15:03:57.870Z,1012.26
2019-02-21T15:04:57.880Z,1012.28
2019-02-21T15:05:57.845Z,1012.30
2019-02-21T15:06:57.833Z,1012.32
2019-02-21T15:07:57.823Z,1012.39
2019-02-21T15:08:57.819Z,1012.41
2019-02-21T15:09:57.805Z,1012.39
2019-02-21T15:10:57.879Z,1012.45
2019-02-21T15:11:57.782Z,1012.48
2019-02-21T15:12:57.775Z,1012.41
2019-02-21T15:13:57.768Z,1012.46
2019-02-21T15:14:57.751Z,1012.46
2019-02-21T15:15:57.748Z,1012.48
2019-02-21T15:16:57.787Z,1012.50
2019-02-21T15:18:06.863Z,1012.54
2019-02-21T15:18:58.709Z,1012.54
2019-02-21T15:19:57.701Z,1012.58
2019-02-21T15:21:08.113Z,1012.51
2019-02-21T15:21:57.710Z,1012.57
2019-02-21T15:22:57.681Z,1012.53
2019-02-21T15:23:57.661Z,1012.61
2019-02-21T15:24:57.662Z,1012.56
2019-02-21T15:25:57.652Z,1012.60
2019-02-21T15:27:08.174Z,1012.69
2019-02-21T15:27:58.659Z,1012.67
2019-02-21T15:28:59.946Z,1012.62
2019-02-21T15:29:57.690Z,1012.67
2019-02-21T15:30:57.594Z,1012.70
2019-02-21T15:31:57.576Z,1012.74
2019-02-21T15:32:57.563Z,1012.69
2019-02-21T15:33:57.567Z,1012.72
2019-02-21T15:34:57.548Z,1012.76
2019-02-21T15:35:57.535Z,1012.71
2019-02-21T15:36:57.544Z,1012.80
2019-02-21T15:37:57.517Z,1012.72
2019-02-21T15:38:57.502Z,1012.82
2019-02-21T15:39:57.533Z,1012.86
2019-02-21T15:40:57.486Z,1012.86
2019-02-21T15:41:57.478Z,1012.85
2019-02-21T15:42:57.471Z,1012.91
2019-02-21T15:43:57.479Z,1012.97
2019-02-21T15:44:57.442Z,1012.92
2019-02-21T15:45:57.470Z,1012.88
2019-02-21T15:46:57.420Z,1012.98
2019-02-21T15:47:57.435Z,1012.97
2019-02-21T15:48:57.428Z,1012.95
2019-02-21T15:49:57.388Z,1013.00
2019-02-21T15:50:57.378Z,1012.97
2019-02-21T15:52:08.145Z,1013.02
2019-02-21T15:52:57.412Z,1013.04
2019-02-21T15:53:57.347Z,1013.00
2019-02-21T15:54:57.348Z,1013.04
2019-02-21T15:55:57.331Z,1013.06
2019-02-21T15:56:57.317Z,1013.11
2019-02-21T15:58:03.828Z,1013.16
2019-02-21T15:58:58.295Z,1013.02
2019-02-21T15:59:57.299Z,1013.17
2019-02-21T16:00:57.275Z,1013.14
2019-02-21T16:01:57.270Z,1013.20
2019-02-21T16:02:57.256Z,1013.25
2019-02-21T16:03:57.421Z,1013.25
2019-02-21T16:04:57.232Z,1013.25
2019-02-21T16:05:57.251Z,1013.27
2019-02-21T16:06:57.212Z,1013.23
2019-02-21T16:07:57.202Z,1013.26
2019-02-21T16:08:57.205Z,1013.23
2019-02-21T16:09:57.286Z,1013.21
2019-02-21T16:10:57.172Z,1013.30
2019-02-21T16:11:57.590Z,1013.33
2019-02-21T16:12:57.664Z,1013.25
2019-02-21T16:14:03.182Z,1013.35
2019-02-21T16:14:58.181Z,1013.32
2019-02-21T16:15:57.120Z,1013.38
2019-02-21T16:16:57.114Z,1013.24
2019-02-21T16:17:57.099Z,1013.37
2019-02-21T16:18:58.802Z,1013.28
2019-02-21T16:19:57.105Z,1013.34
2019-02-21T16:20:57.097Z,1013.41
2019-02-21T16:21:57.058Z,1013.36
2019-02-21T16:23:07.417Z,1013.36
2019-02-21T16:23:57.068Z,1013.31
2019-02-21T16:24:57.026Z,1013.37
2019-02-21T16:25:57.036Z,1013.38
2019-02-21T16:26:57.182Z,1013.41
2019-02-21T16:27:57.001Z,1013.42
2019-02-21T16:28:56.990Z,1013.38
2019-02-21T16:29:56.980Z,1013.44
2019-02-21T16:30:56.977Z,1013.46
2019-02-21T16:31:56.959Z,1013.46
2019-02-21T16:32:56.961Z,1013.54
2019-02-21T16:33:56.954Z,1013.54
2019-02-21T16:34:56.928Z,1013.55
2019-02-21T16:35:56.920Z,1013.54
2019-02-21T16:37:02.525Z,1013.60
2019-02-21T16:37:57.931Z,1013.55
2019-02-21T16:38:56.893Z,1013.59
2019-02-21T16:39:56.876Z,1013.62
2019-02-21T16:40:56.869Z,1013.63
2019-02-21T16:41:56.848Z,1013.57
2019-02-21T16:42:56.854Z,1013.65
2019-02-21T16:43:57.002Z,1013.63
2019-02-21T16:44:56.821Z,1013.67
2019-02-21T16:46:07.187Z,1013.73
2019-02-21T16:46:57.804Z,1013.65
2019-02-21T16:47:56.789Z,1013.74
2019-02-21T16:48:56.793Z,1013.70
2019-02-21T16:49:58.307Z,1013.75
2019-02-21T16:50:56.760Z,1013.70
2019-02-21T16:51:56.747Z,1013.71
2019-02-21T16:52:56.749Z,1013.76
2019-02-21T16:54:06.621Z,1013.73
2019-02-21T16:54:56.736Z,1013.71
2019-02-21T16:55:56.751Z,1013.74
2019-02-21T16:56:56.700Z,1013.68
2019-02-21T16:57:56.697Z,1013.76
2019-02-21T16:58:56.680Z,1013.77
2019-02-21T16:59:56.662Z,1013.76
2019-02-21T17:00:56.938Z,1013.80
2019-02-21T17:01:56.651Z,1013.84
2019-02-21T17:02:56.712Z,1013.84
2019-02-21T17:03:56.627Z,1013.89
2019-02-21T17:04:56.619Z,1013.91
2019-02-21T17:05:56.609Z,1013.87
2019-02-21T17:06:56.593Z,1013.93
2019-02-21T17:07:56.630Z,1013.98
2019-02-21T17:08:56.590Z,1013.93
2019-02-21T17:09:56.564Z,1013.97
2019-02-21T17:10:56.554Z,1014.01
2019-02-21T17:11:56.549Z,1013.96
2019-02-21T17:12:56.538Z,1014.00
2019-02-21T17:13:56.592Z,1014.04
2019-02-21T17:14:56.530Z,1014.00
2019-02-21T17:15:56.501Z,1014.10
2019-02-21T17:16:56.491Z,1014.10
2019-02-21T17:17:56.478Z,1014.16
2019-02-21T17:18:56.478Z,1014.18
2019-02-21T17:19:56.508Z,1014.10
2019-02-21T17:20:56.451Z,1014.14
2019-02-21T17:21:56.447Z,1014.14
2019-02-21T17:22:56.438Z,1014.16
2019-02-21T17:23:56.446Z,1014.21
2019-02-21T17:25:08.235Z,1014.17
2019-02-21T17:25:56.417Z,1014.21
2019-02-21T17:26:56.394Z,1014.24
2019-02-21T17:27:56.398Z,1014.25
2019-02-21T17:28:56.370Z,1014.25
2019-02-21T17:29:56.362Z,1014.30
2019-02-21T17:30:56.360Z,1014.27
2019-02-21T17:31:56.378Z,1014.30
2019-02-21T17:32:56.351Z,1014.28
2019-02-21T17:33:56.315Z,1014.43
2019-02-21T17:34:56.307Z,1014.32
2019-02-21T17:35:56.310Z,1014.43
2019-02-21T17:36:56.287Z,1014.49
2019-02-21T17:37:56.283Z,1014.48
2019-02-21T17:38:56.283Z,1014.46
2019-02-21T17:39:56.259Z,1014.45
2019-02-21T17:40:56.248Z,1014.51
2019-02-21T17:41:56.234Z,1014.49
2019-02-21T17:42:56.224Z,1014.49
2019-02-21T17:43:56.263Z,1014.54
2019-02-21T17:44:56.213Z,1014.51
2019-02-21T17:45:56.194Z,1014.51
2019-02-21T17:46:56.261Z,1014.48
2019-02-21T17:47:56.179Z,1014.58
2019-02-21T17:48:56.168Z,1014.55
2019-02-21T17:49:56.163Z,1014.64
2019-02-21T17:50:56.150Z,1014.61
2019-02-21T17:51:56.147Z,1014.65
2019-02-21T17:52:56.125Z,1014.62
2019-02-21T17:53:56.117Z,1014.68
2019-02-21T17:54:56.102Z,1014.72
2019-02-21T17:56:07.267Z,1014.66
2019-02-21T17:56:56.088Z,1014.63
2019-02-21T17:57:56.077Z,1014.69
2019-02-21T17:58:56.080Z,1014.78
2019-02-21T17:59:56.054Z,1014.78
2019-02-21T18:00:56.040Z,1014.75
2019-02-21T18:01:56.052Z,1014.75
2019-02-21T18:02:56.019Z,1014.75
2019-02-21T18:03:56.027Z,1014.83
2019-02-21T18:04:55.998Z,1014.81
2019-02-21T18:05:56.276Z,1014.83
2019-02-21T18:06:55.979Z,1014.75
2019-02-21T18:07:56.147Z,1014.84
2019-02-21T18:08:56.033Z,1014.80
2019-02-21T18:09:55.952Z,1014.82
2019-02-21T18:10:55.953Z,1014.72
2019-02-21T18:11:55.927Z,1014.84
2019-02-21T18:12:55.913Z,1014.87
2019-02-21T18:13:55.928Z,1014.98
2019-02-21T18:14:55.912Z,1014.97
2019-02-21T18:15:55.882Z,1015.01
2019-02-21T18:16:55.880Z,1015.03
2019-02-21T18:17:55.864Z,1015.01
2019-02-21T18:18:55.852Z,1015.06
2019-02-21T18:19:55.881Z,1015.04
2019-02-21T18:20:55.831Z,1015.06
2019-02-21T18:21:55.827Z,1015.12
2019-02-21T18:22:55.837Z,1015.16
2019-02-21T18:23:55.812Z,1015.14
2019-02-21T18:24:55.796Z,1015.19
2019-02-21T18:25:55.905Z,1015.20
2019-02-21T18:27:05.971Z,1015.16
2019-02-21T18:27:55.815Z,1015.28
2019-02-21T18:28:55.756Z,1015.22
2019-02-21T18:29:55.743Z,1015.27
2019-02-21T18:30:55.741Z,1015.28
2019-02-21T18:31:55.763Z,1015.24
2019-02-21T18:32:55.714Z,1015.34
2019-02-21T18:33:55.700Z,1015.32
2019-02-21T18:34:55.691Z,1015.35
2019-02-21T18:35:55.696Z,1015.36
2019-02-21T18:36:55.675Z,1015.36
2019-02-21T18:37:55.695Z,1015.42
2019-02-21T18:38:55.651Z,1015.37
2019-02-21T18:39:55.639Z,1015.37
2019-02-21T18:40:55.636Z,1015.44
2019-02-21T18:41:55.639Z,1015.41
2019-02-21T18:42:55.605Z,1015.44
2019-02-21T18:43:55.637Z,1015.44
2019-02-21T18:44:55.592Z,1015.46
2019-02-21T18:45:57.500Z,1015.49
2019-02-21T18:46:55.572Z,1015.50
2019-02-21T18:47:55.574Z,1015.50
2019-02-21T18:48:55.543Z,1015.56
2019-02-21T18:49:55.588Z,1015.54
2019-02-21T18:50:55.524Z,1015.55
2019-02-21T18:51:55.517Z,1015.61
2019-02-21T18:52:55.508Z,1015.56
2019-02-21T18:53:55.496Z,1015.59
2019-02-21T18:54:55.490Z,1015.62
2019-02-21T18:55:55.513Z,1015.67
2019-02-21T18:56:55.469Z,1015.67
2019-02-21T18:58:05.731Z,1015.71